createdAt,value
2022-12-23T00:00:17.041Z,20.37
2022-12-23T00:02:45.724Z,19.07
2022-12-23T00:05:14.753Z,18.90
2022-12-23T00:07:42.774Z,19.60
2022-12-23T00:10:11.730Z,19.20
2022-12-23T00:12:57.029Z,17.83
2022-12-23T00:15:26.393Z,18.80
2022-12-23T00:17:54.366Z,18.40
2022-12-23T00:20:22.391Z,20.40
2022-12-23T00:23:05.777Z,19.53
2022-12-23T00:25:44.675Z,19.70
2022-12-23T00:28:14.256Z,20.37
2022-12-23T00:30:54.884Z,20.43
2022-12-23T00:33:24.889Z,20.43
2022-12-23T00:35:53.641Z,18.63
2022-12-23T00:38:43.285Z,21.57
2022-12-23T00:41:30.106Z,19.43
2022-12-23T00:43:58.505Z,20.20
2022-12-23T00:46:28.115Z,20.47
2022-12-23T00:49:13.424Z,17.57
2022-12-23T00:51:41.497Z,19.57
2022-12-23T00:54:09.581Z,19.17
2022-12-23T00:56:37.597Z,19.83
2022-12-23T00:59:05.931Z,19.47
2022-12-23T01:01:52.580Z,20.67
2022-12-23T01:04:38.507Z,20.30
2022-12-23T01:07:08.602Z,20.93
2022-12-23T01:09:37.103Z,21.00
2022-12-23T01:12:05.529Z,19.63
2022-12-23T01:14:33.769Z,21.50
2022-12-23T01:17:03.281Z,20.50
2022-12-23T01:19:31.379Z,20.53
2022-12-23T01:21:59.370Z,20.97
2022-12-23T01:24:29.412Z,21.00
2022-12-23T01:26:57.541Z,19.40
2022-12-23T01:29:25.656Z,20.47
2022-12-23T01:31:53.769Z,20.20
2022-12-23T01:34:23.200Z,21.00
2022-12-23T01:36:51.251Z,19.43
2022-12-23T01:39:19.485Z,20.97
2022-12-23T01:42:05.379Z,21.43
2022-12-23T01:45:02.173Z,19.87
2022-12-23T01:47:40.220Z,20.13
2022-12-23T01:50:16.015Z,19.60
2022-12-23T01:52:50.419Z,20.07
2022-12-23T01:55:22.038Z,21.20
2022-12-23T01:57:51.279Z,20.50
2022-12-23T02:00:39.972Z,19.90
2022-12-23T02:03:26.097Z,20.70
2022-12-23T02:06:16.151Z,21.67
2022-12-23T02:09:01.929Z,21.80
2022-12-23T02:11:41.398Z,23.40
2022-12-23T02:14:43.564Z,21.83
2022-12-23T02:17:22.458Z,20.60
2022-12-23T02:20:17.969Z,20.33
2022-12-23T02:23:18.406Z,21.17
2022-12-23T02:26:07.302Z,22.23
2022-12-23T02:29:00.615Z,23.00
2022-12-23T02:31:40.514Z,20.63
2022-12-23T02:34:19.667Z,20.90
2022-12-23T02:36:56.218Z,20.40
2022-12-23T02:39:35.249Z,20.83
2022-12-23T02:42:10.695Z,20.93
2022-12-23T02:44:45.612Z,20.93
2022-12-23T02:47:23.555Z,19.77
2022-12-23T02:49:55.903Z,19.93
2022-12-23T02:52:30.948Z,19.13
2022-12-23T02:55:02.616Z,19.87
2022-12-23T02:57:35.897Z,19.93
2022-12-23T03:00:06.266Z,20.37
2022-12-23T03:02:40.308Z,18.47
2022-12-23T03:05:28.134Z,19.17
2022-12-23T03:07:59.744Z,18.50
2022-12-23T03:10:39.075Z,19.70
2022-12-23T03:13:24.881Z,20.63
2022-12-23T03:16:02.968Z,19.87
2022-12-23T03:18:40.011Z,20.67
2022-12-23T03:21:13.943Z,20.30
2022-12-23T03:23:55.204Z,21.23
2022-12-23T03:26:32.908Z,22.37
2022-12-23T03:29:07.631Z,21.63
2022-12-23T03:31:40.285Z,20.57
2022-12-23T03:34:12.579Z,21.00
2022-12-23T03:36:46.999Z,22.53
2022-12-23T03:39:19.891Z,21.23
2022-12-23T03:41:52.770Z,23.33
2022-12-23T03:44:28.095Z,23.13
2022-12-23T03:47:04.362Z,21.03
2022-12-23T03:49:38.691Z,22.90
2022-12-23T03:52:17.287Z,22.83
2022-12-23T03:54:53.948Z,22.83
2022-12-23T03:57:24.193Z,22.57
2022-12-23T03:59:53.550Z,24.20
2022-12-23T04:02:28.730Z,23.73
2022-12-23T04:05:23.018Z,22.87
2022-12-23T04:07:56.016Z,23.50
2022-12-23T04:10:26.302Z,24.53
2022-12-23T04:12:55.844Z,23.27
2022-12-23T04:15:26.217Z,22.33
2022-12-23T04:17:56.699Z,23.23
2022-12-23T04:20:26.932Z,23.37
2022-12-23T04:22:55.539Z,22.17
2022-12-23T04:25:24.135Z,22.50
2022-12-23T04:27:52.845Z,21.43
2022-12-23T04:30:21.565Z,23.27
2022-12-23T04:32:51.211Z,22.17
2022-12-23T04:35:20.066Z,19.70
2022-12-23T04:37:52.392Z,22.33
2022-12-23T04:40:21.117Z,23.50
2022-12-23T04:42:49.820Z,23.63
2022-12-23T04:45:18.574Z,24.33
2022-12-23T04:47:47.239Z,23.37
2022-12-23T04:50:18.861Z,25.07
2022-12-23T04:52:47.525Z,24.33
2022-12-23T04:55:17.717Z,24.93
2022-12-23T04:57:46.358Z,25.97
2022-12-23T05:00:16.025Z,25.43
2022-12-23T05:02:44.861Z,25.27
2022-12-23T05:05:13.328Z,25.43
2022-12-23T05:07:41.973Z,24.50
2022-12-23T05:10:11.647Z,26.20
2022-12-23T05:12:41.720Z,25.47
2022-12-23T05:15:11.100Z,24.40
2022-12-23T05:17:39.751Z,24.90
2022-12-23T05:20:12.460Z,23.77
2022-12-23T05:22:41.192Z,24.43
2022-12-23T05:25:12.690Z,25.47
2022-12-23T05:27:45.280Z,25.83
2022-12-23T05:30:15.320Z,29.27
2022-12-23T05:32:46.187Z,28.67
2022-12-23T05:35:14.788Z,28.63
2022-12-23T05:37:43.510Z,28.97
2022-12-23T05:40:21.601Z,29.07
2022-12-23T05:42:53.685Z,27.13
2022-12-23T05:45:25.040Z,29.77
2022-12-23T05:47:53.626Z,30.40
2022-12-23T05:50:24.761Z,31.17
2022-12-23T05:52:56.070Z,28.03
2022-12-23T05:55:27.503Z,27.73
2022-12-23T05:57:57.528Z,27.90
2022-12-23T06:00:26.466Z,27.60
2022-12-23T06:02:55.361Z,28.07
2022-12-23T06:05:24.452Z,26.00
2022-12-23T06:07:54.183Z,26.47
2022-12-23T06:10:22.796Z,27.00
2022-12-23T06:12:51.476Z,25.73
2022-12-23T06:15:21.657Z,25.30
2022-12-23T06:17:50.759Z,25.97
2022-12-23T06:20:22.303Z,26.37
2022-12-23T06:22:50.971Z,23.93
2022-12-23T06:25:19.769Z,25.70
2022-12-23T06:27:51.397Z,25.67
2022-12-23T06:30:22.572Z,25.93
2022-12-23T06:32:51.162Z,23.77
2022-12-23T06:35:23.084Z,25.30
2022-12-23T06:37:54.591Z,25.70
2022-12-23T06:40:23.269Z,25.63
2022-12-23T06:42:51.691Z,24.97
2022-12-23T06:45:24.906Z,25.13
2022-12-23T06:48:00.242Z,25.37
2022-12-23T06:50:30.909Z,23.57
2022-12-23T06:53:01.610Z,24.83
2022-12-23T06:55:31.007Z,24.43
2022-12-23T06:58:02.867Z,26.17
2022-12-23T07:00:35.344Z,24.87
2022-12-23T07:03:06.860Z,26.03
2022-12-23T07:05:37.566Z,23.97
2022-12-23T07:08:12.844Z,23.13
2022-12-23T07:10:43.782Z,24.00
2022-12-23T07:13:23.451Z,23.80
2022-12-23T07:15:54.332Z,26.17
2022-12-23T07:18:29.833Z,22.57
2022-12-23T07:21:04.978Z,22.60
2022-12-23T07:23:36.754Z,23.90
2022-12-23T07:26:06.392Z,23.90
2022-12-23T07:28:37.276Z,22.77
2022-12-23T07:31:12.536Z,23.70
2022-12-23T07:33:46.484Z,22.30
2022-12-23T07:36:17.370Z,23.00
2022-12-23T07:38:46.974Z,24.97
2022-12-23T07:41:20.192Z,24.70
2022-12-23T07:43:49.820Z,25.20
2022-12-23T07:46:20.565Z,23.87
2022-12-23T07:48:52.011Z,24.13
2022-12-23T07:51:21.404Z,25.23
2022-12-23T07:53:51.602Z,24.43
2022-12-23T07:56:21.439Z,24.37
2022-12-23T07:58:51.250Z,24.60
2022-12-23T08:01:22.574Z,24.80
2022-12-23T08:03:52.130Z,25.03
2022-12-23T08:06:21.287Z,24.27
2022-12-23T08:08:53.042Z,24.47
2022-12-23T08:11:22.844Z,23.20
2022-12-23T08:13:55.312Z,22.47
2022-12-23T08:16:26.320Z,24.47
2022-12-23T08:18:55.593Z,24.60
2022-12-23T08:21:24.955Z,23.40
2022-12-23T08:23:55.305Z,24.40
2022-12-23T08:26:26.725Z,24.00
2022-12-23T08:28:55.734Z,23.43
2022-12-23T08:31:30.390Z,24.70
2022-12-23T08:34:00.924Z,22.63
2022-12-23T08:36:40.077Z,20.90
2022-12-23T08:39:10.953Z,23.47
2022-12-23T08:41:45.475Z,22.00
2022-12-23T08:44:15.269Z,24.43
2022-12-23T08:46:48.380Z,24.10
2022-12-23T08:49:20.440Z,24.33
2022-12-23T08:51:50.129Z,23.90
2022-12-23T08:54:31.499Z,22.27
2022-12-23T08:57:03.300Z,23.97
2022-12-23T08:59:35.042Z,23.03
2022-12-23T09:02:08.780Z,21.50
2022-12-23T09:04:39.362Z,20.83
2022-12-23T09:07:09.244Z,21.33
2022-12-23T09:09:43.460Z,22.23
2022-12-23T09:12:12.969Z,21.27
2022-12-23T09:14:43.174Z,21.80
2022-12-23T09:17:15.940Z,23.60
2022-12-23T09:19:52.517Z,22.33
2022-12-23T09:22:26.105Z,21.37
2022-12-23T09:24:58.645Z,22.73
2022-12-23T09:27:32.891Z,22.17
2022-12-23T09:30:02.445Z,21.40
2022-12-23T09:32:34.813Z,22.13
2022-12-23T09:35:04.838Z,22.50
2022-12-23T09:37:34.787Z,21.37
2022-12-23T09:40:04.827Z,23.60
2022-12-23T09:42:50.349Z,22.07
2022-12-23T09:45:40.921Z,19.67
2022-12-23T09:48:19.707Z,19.87
2022-12-23T09:50:50.152Z,22.10
2022-12-23T09:53:22.774Z,22.57
2022-12-23T09:55:59.695Z,21.27
2022-12-23T09:58:32.061Z,17.73
2022-12-23T10:01:15.655Z,20.40
2022-12-23T10:04:14.377Z,19.03
2022-12-23T10:06:49.217Z,18.20
2022-12-23T10:09:20.870Z,18.03
2022-12-23T10:11:54.326Z,17.57
2022-12-23T10:14:29.614Z,17.57
2022-12-23T10:17:03.082Z,18.77
2022-12-23T10:19:42.077Z,18.23
2022-12-23T10:22:24.820Z,18.07
2022-12-23T10:24:57.764Z,22.17
2022-12-23T10:27:36.281Z,17.50
2022-12-23T10:30:42.471Z,21.60
2022-12-23T10:33:09.639Z,23.80
2022-12-23T10:35:58.326Z,20.70
2022-12-23T10:38:46.601Z,20.50
2022-12-23T10:41:26.103Z,19.03
2022-12-23T10:44:10.956Z,19.70
2022-12-23T10:46:54.417Z,18.30
2022-12-23T10:49:33.166Z,16.73
2022-12-23T10:52:16.024Z,17.27
2022-12-23T10:54:47.726Z,19.30
2022-12-23T10:57:19.453Z,20.27
2022-12-23T10:59:49.145Z,21.93
2022-12-23T11:02:43.069Z,18.67
2022-12-23T11:05:22.262Z,19.90
2022-12-23T11:07:55.039Z,19.77
2022-12-23T11:10:34.804Z,18.93
2022-12-23T11:13:08.172Z,19.93
2022-12-23T11:15:43.323Z,20.90
2022-12-23T11:18:22.270Z,20.10
2022-12-23T11:21:07.189Z,18.97
2022-12-23T11:23:44.565Z,18.43
2022-12-23T11:26:22.014Z,18.00
2022-12-23T11:28:55.074Z,17.27
2022-12-23T11:31:36.726Z,19.07
2022-12-23T11:34:15.650Z,18.77
2022-12-23T11:36:48.886Z,19.57
2022-12-23T11:39:28.750Z,19.67
2022-12-23T11:42:07.269Z,19.57
2022-12-23T11:44:41.948Z,20.73
2022-12-23T11:47:29.828Z,19.17
2022-12-23T11:50:15.917Z,19.73
2022-12-23T11:52:53.477Z,19.33
2022-12-23T11:55:30.661Z,19.90
2022-12-23T11:58:04.919Z,17.90
2022-12-23T12:00:42.268Z,19.63
2022-12-23T12:03:24.072Z,19.23
2022-12-23T12:06:07.183Z,19.40
2022-12-23T12:08:41.848Z,20.13
2022-12-23T12:11:23.528Z,18.60
2022-12-23T12:14:03.083Z,19.53
2022-12-23T12:16:53.409Z,20.53
2022-12-23T12:19:37.015Z,20.43
2022-12-23T12:22:13.643Z,20.57
2022-12-23T12:24:51.793Z,20.80
2022-12-23T12:27:37.269Z,21.57
2022-12-23T12:30:10.039Z,19.90
2022-12-23T12:32:51.525Z,19.40
2022-12-23T12:35:31.401Z,21.57
2022-12-23T12:38:15.184Z,20.93
2022-12-23T12:40:47.192Z,20.47
2022-12-23T12:43:30.739Z,21.17
2022-12-23T12:46:26.185Z,20.57
2022-12-23T12:49:00.856Z,19.53
2022-12-23T12:51:40.191Z,21.33
2022-12-23T12:54:19.748Z,20.97
2022-12-23T12:56:53.590Z,21.33
2022-12-23T12:59:30.371Z,21.27
2022-12-23T13:02:12.792Z,22.63
2022-12-23T13:05:16.627Z,22.33
2022-12-23T13:07:59.754Z,20.97
2022-12-23T13:10:38.987Z,19.63
2022-12-23T13:13:21.085Z,17.70
2022-12-23T13:15:56.446Z,17.83
2022-12-23T13:18:38.347Z,16.63
2022-12-23T13:21:18.999Z,15.10
2022-12-23T13:24:03.629Z,16.10
2022-12-23T13:26:39.724Z,18.03
2022-12-23T13:29:49.447Z,16.80
2022-12-23T13:32:40.056Z,13.83
2022-12-23T13:35:26.338Z,16.43
2022-12-23T13:38:01.214Z,16.27
2022-12-23T13:40:40.143Z,16.53
2022-12-23T13:43:15.545Z,15.67
2022-12-23T13:45:47.966Z,16.00
2022-12-23T13:48:32.343Z,15.30
2022-12-23T13:51:06.748Z,18.43
2022-12-23T13:53:49.687Z,19.10
2022-12-23T13:56:27.165Z,17.20
2022-12-23T13:58:56.500Z,17.37
2022-12-23T14:01:35.281Z,17.13
2022-12-23T14:04:33.998Z,17.53
2022-12-23T14:07:05.329Z,17.33
2022-12-23T14:09:36.891Z,17.97
2022-12-23T14:12:21.981Z,17.13
2022-12-23T14:15:26.456Z,17.20
2022-12-23T14:18:08.511Z,17.20
2022-12-23T14:20:50.295Z,16.80
2022-12-23T14:23:36.002Z,17.27
2022-12-23T14:26:22.915Z,17.80
2022-12-23T14:29:00.899Z,16.40
2022-12-23T14:31:31.270Z,18.43
2022-12-23T14:34:08.614Z,17.27
2022-12-23T14:36:38.158Z,18.10
2022-12-23T14:39:30.860Z,16.80
2022-12-23T14:42:05.782Z,18.20
2022-12-23T14:44:49.819Z,17.73
2022-12-23T14:47:33.613Z,15.33
2022-12-23T14:50:42.855Z,16.67
2022-12-23T14:53:26.757Z,16.70
2022-12-23T14:56:21.351Z,17.00
2022-12-23T14:59:15.400Z,16.47
2022-12-23T15:01:48.361Z,17.40
2022-12-23T15:04:20.848Z,18.80
2022-12-23T15:06:52.107Z,19.23
2022-12-23T15:09:26.703Z,18.90
2022-12-23T15:11:57.457Z,17.60
2022-12-23T15:14:33.405Z,17.43
2022-12-23T15:17:15.158Z,17.57
2022-12-23T15:19:47.616Z,17.93
2022-12-23T15:22:23.784Z,19.30
2022-12-23T15:24:57.797Z,17.87
2022-12-23T15:27:28.315Z,19.10
2022-12-23T15:29:57.602Z,18.63
2022-12-23T15:32:26.948Z,17.90
2022-12-23T15:35:05.676Z,18.40
2022-12-23T15:37:34.477Z,19.10
2022-12-23T15:40:11.867Z,17.70
2022-12-23T15:42:47.251Z,21.53
2022-12-23T15:45:34.893Z,21.83
2022-12-23T15:48:04.306Z,21.30
2022-12-23T15:50:40.413Z,21.40
2022-12-23T15:53:11.710Z,19.97
2022-12-23T15:55:42.247Z,19.90
2022-12-23T15:58:19.984Z,19.93
2022-12-23T16:00:54.190Z,21.00
2022-12-23T16:03:29.292Z,19.83
2022-12-23T16:06:08.480Z,20.87
2022-12-23T16:08:37.076Z,19.33
2022-12-23T16:11:14.675Z,21.03
2022-12-23T16:13:58.323Z,19.83
2022-12-23T16:16:40.055Z,19.10
2022-12-23T16:19:24.666Z,17.40
2022-12-23T16:21:52.989Z,17.77
2022-12-23T16:24:22.198Z,19.63
2022-12-23T16:26:51.704Z,20.23
2022-12-23T16:29:20.757Z,20.83
2022-12-23T16:31:54.394Z,20.90
2022-12-23T16:34:31.392Z,22.10
2022-12-23T16:36:59.433Z,22.37
2022-12-23T16:39:27.487Z,23.30
2022-12-23T16:41:56.984Z,22.93
2022-12-23T16:44:25.090Z,23.57
2022-12-23T16:46:53.288Z,22.30
2022-12-23T16:49:26.580Z,21.53
2022-12-23T16:51:58.074Z,21.50
2022-12-23T16:54:26.105Z,21.40
2022-12-23T16:56:54.145Z,21.77
2022-12-23T16:59:24.910Z,22.13
2022-12-23T17:01:55.508Z,21.77
2022-12-23T17:04:27.668Z,22.73
2022-12-23T17:06:55.731Z,20.77
2022-12-23T17:09:23.757Z,21.80
2022-12-23T17:11:54.296Z,19.07
2022-12-23T17:14:25.409Z,18.73
2022-12-23T17:16:53.933Z,20.70
2022-12-23T17:19:28.589Z,19.80
2022-12-23T17:22:02.067Z,20.87
2022-12-23T17:24:31.282Z,21.87
2022-12-23T17:26:59.611Z,21.17
2022-12-23T17:29:29.294Z,19.67
2022-12-23T17:31:57.476Z,20.23
2022-12-23T17:34:25.859Z,18.87
2022-12-23T17:36:54.152Z,17.53
2022-12-23T17:39:23.110Z,18.87
2022-12-23T17:41:51.310Z,18.37
2022-12-23T17:44:19.967Z,17.37
2022-12-23T17:46:50.425Z,19.23
2022-12-23T17:49:18.434Z,17.40
2022-12-23T17:51:46.738Z,19.03
2022-12-23T17:54:23.010Z,21.07
2022-12-23T17:56:51.330Z,18.33
2022-12-23T17:59:19.435Z,18.83
2022-12-23T18:01:47.694Z,17.73
2022-12-23T18:04:17.168Z,18.27
2022-12-23T18:06:45.182Z,18.20
2022-12-23T18:09:13.173Z,18.13
2022-12-23T18:11:44.824Z,17.50
2022-12-23T18:14:17.451Z,17.17
2022-12-23T18:16:46.333Z,15.67
2022-12-23T18:19:19.726Z,16.70
2022-12-23T18:21:48.152Z,16.33
2022-12-23T18:24:16.520Z,16.63
2022-12-23T18:26:44.815Z,16.93
2022-12-23T18:29:12.832Z,17.90
2022-12-23T18:31:51.004Z,18.50
2022-12-23T18:34:21.269Z,18.77
2022-12-23T18:36:51.708Z,18.97
2022-12-23T18:39:20.314Z,20.00
2022-12-23T18:41:48.317Z,21.37
2022-12-23T18:44:18.633Z,20.00
2022-12-23T18:46:46.777Z,19.13
2022-12-23T18:49:14.882Z,20.57
2022-12-23T18:51:44.262Z,21.33
2022-12-23T18:54:15.127Z,19.97
2022-12-23T18:56:43.184Z,20.57
2022-12-23T18:59:16.896Z,21.40
2022-12-23T19:01:45.043Z,22.23
2022-12-23T19:04:13.408Z,22.27
2022-12-23T19:06:42.022Z,23.53
2022-12-23T19:09:16.807Z,23.60
2022-12-23T19:11:46.828Z,23.13
2022-12-23T19:14:15.089Z,23.83
2022-12-23T19:16:49.277Z,21.23
2022-12-23T19:19:19.653Z,24.60
2022-12-23T19:21:47.917Z,24.30
2022-12-23T19:24:17.396Z,23.50
2022-12-23T19:26:45.413Z,23.47
2022-12-23T19:29:13.532Z,23.57
2022-12-23T19:31:41.732Z,22.27
2022-12-23T19:34:15.107Z,22.90
2022-12-23T19:36:43.974Z,22.47
2022-12-23T19:39:16.372Z,20.67
2022-12-23T19:41:46.628Z,21.13
2022-12-23T19:44:14.911Z,19.80
2022-12-23T19:46:43.012Z,19.47
2022-12-23T19:49:17.585Z,18.93
2022-12-23T19:51:48.181Z,18.50
2022-12-23T19:54:16.428Z,19.27
2022-12-23T19:56:46.131Z,16.73
2022-12-23T19:59:14.197Z,18.13
2022-12-23T20:01:42.501Z,17.00
2022-12-23T20:04:11.368Z,18.97
2022-12-23T20:06:41.006Z,16.87
2022-12-23T20:09:11.968Z,16.70
2022-12-23T20:11:41.554Z,13.53
2022-12-23T20:14:12.065Z,14.80
2022-12-23T20:16:41.582Z,14.03
2022-12-23T20:19:09.899Z,14.03
2022-12-23T20:21:38.409Z,13.00
2022-12-23T20:24:07.252Z,13.80
2022-12-23T20:26:35.376Z,13.93
2022-12-23T20:29:03.432Z,14.43
2022-12-23T20:31:35.457Z,14.80
2022-12-23T20:34:04.088Z,14.73
2022-12-23T20:36:34.776Z,13.97
2022-12-23T20:39:03.909Z,13.77
2022-12-23T20:41:33.199Z,14.67
2022-12-23T20:46:51.114Z,13.23
2022-12-23T20:49:19.789Z,13.17
2022-12-23T20:51:47.904Z,13.37
2022-12-23T20:54:15.943Z,13.37
2022-12-23T20:56:44.102Z,13.13
2022-12-23T20:59:12.219Z,13.10
2022-12-23T21:01:41.774Z,12.97
2022-12-23T21:04:15.835Z,12.90
2022-12-23T21:06:45.641Z,12.03
2022-12-23T21:09:15.664Z,12.73
2022-12-23T21:11:45.831Z,12.57
2022-12-23T21:14:15.492Z,15.30
2022-12-23T21:16:43.877Z,14.07
2022-12-23T21:19:18.155Z,15.47
2022-12-23T21:21:46.717Z,14.20
2022-12-23T21:24:14.979Z,11.17
2022-12-23T21:26:43.803Z,10.83
2022-12-23T21:29:12.817Z,10.00
2022-12-23T21:31:42.010Z,10.00
2022-12-23T21:34:14.249Z,9.10
2022-12-23T21:36:44.131Z,9.63
2022-12-23T21:39:15.769Z,9.70
2022-12-23T21:41:43.847Z,8.40
2022-12-23T21:44:14.645Z,8.20
2022-12-23T21:46:42.788Z,7.20
2022-12-23T21:49:10.947Z,6.83
2022-12-23T21:51:41.248Z,5.73
2022-12-23T21:54:12.781Z,6.00
2022-12-23T21:56:41.875Z,5.20
2022-12-23T21:59:13.436Z,5.17
2022-12-23T22:01:42.474Z,5.67
2022-12-23T22:04:10.718Z,6.20
2022-12-23T22:06:43.930Z,6.60
2022-12-23T22:09:16.440Z,6.50
2022-12-23T22:11:45.527Z,6.10
2022-12-23T22:14:19.704Z,6.73
2022-12-23T22:16:47.767Z,6.20
2022-12-23T22:19:16.273Z,5.83
2022-12-23T22:21:44.295Z,6.60
2022-12-23T22:24:13.735Z,6.03
2022-12-23T22:26:42.205Z,6.13
2022-12-23T22:29:12.187Z,5.97
2022-12-23T22:31:43.112Z,5.97
2022-12-23T22:34:14.048Z,5.87
2022-12-23T22:36:42.177Z,5.40
2022-12-23T22:39:19.366Z,6.67
2022-12-23T22:41:48.699Z,6.27
2022-12-23T22:44:16.953Z,5.97
2022-12-23T22:46:45.212Z,6.17
2022-12-23T22:49:13.953Z,6.30
2022-12-23T22:51:43.154Z,6.33
2022-12-23T22:54:13.096Z,6.20
2022-12-23T22:56:41.208Z,6.20
2022-12-23T22:59:10.637Z,6.77
2022-12-23T23:01:38.771Z,6.67
2022-12-23T23:04:07.964Z,7.30
2022-12-23T23:06:38.707Z,6.23
2022-12-23T23:09:07.946Z,6.70
2022-12-23T23:11:37.478Z,7.23
2022-12-23T23:14:05.803Z,7.00
2022-12-23T23:16:34.540Z,6.73
2022-12-23T23:19:03.750Z,6.80
2022-12-23T23:21:32.005Z,6.97
2022-12-23T23:24:00.178Z,6.97
2022-12-23T23:26:28.472Z,6.63
2022-12-23T23:28:57.967Z,7.83
2022-12-23T23:31:43.286Z,8.63
2022-12-23T23:34:12.419Z,9.93
2022-12-23T23:36:40.632Z,9.60
2022-12-23T23:39:09.163Z,8.90
2022-12-23T23:41:37.205Z,7.60
2022-12-23T23:44:06.726Z,7.20
2022-12-23T23:46:34.942Z,7.70
2022-12-23T23:49:03.161Z,7.70
2022-12-23T23:51:31.293Z,7.77
2022-12-23T23:53:59.369Z,7.10
2022-12-23T23:56:31.089Z,7.63
2022-12-23T23:59:02.003Z,7.43
